Time;durP1;ratioP1;P1;durP2;ratioP2;P2;SDS_P1;SDS_P2;PMS_P1;PMS_P2;Temp;Humidity;BMP_temperature;BMP_pressure;BME280_temperature;BME280_humidity;BME280_pressure;Samples;Min_cycle;Max_cycle;Signal;HPM_P1;HPM_P2
2021/03/16 00:01:12;;;;;;;;;;;8.80;96.70;;;;;;5053947;28;19928;-51
2021/03/16 00:03:51;;;;;;;;;;;8.80;96.80;;;;;;5053686;28;19924;-51
2021/03/16 00:06:54;;;;;;;;;;;8.70;97.00;;;;;;5012029;28;19931;-52
2021/03/16 00:09:21;;;;;;;;;;;8.70;96.90;;;;;;5045661;28;19931;-53
2021/03/16 00:11:49;;;;;;;;;;;8.70;97.10;;;;;;5053759;28;19925;-53
2021/03/16 00:14:16;;;;;;;;;;;8.70;97.20;;;;;;5053676;28;19968;-49
2021/03/16 00:16:43;;;;;;;;;;;8.70;97.20;;;;;;5035823;28;20367;-53
2021/03/16 00:19:10;;;;;;;;;;;8.60;97.30;;;;;;5035890;28;19925;-50
2021/03/16 00:21:40;;;;;;;;;;;8.60;97.50;;;;;;5053668;28;19925;-50
2021/03/16 00:24:07;;;;;;;;;;;8.60;97.40;;;;;;5019677;28;20432;-53
2021/03/16 00:26:34;;;;;;;;;;;8.50;97.60;;;;;;5003367;28;19925;-50
2021/03/16 00:29:02;;;;;;;;;;;8.40;97.80;;;;;;5019652;28;19928;-50
2021/03/16 00:31:29;;;;;;;;;;;8.30;97.60;;;;;;5039899;28;19959;-50
2021/03/16 00:33:56;;;;;;;;;;;8.20;98.00;;;;;;5039870;28;19932;-50
2021/03/16 00:36:24;;;;;;;;;;;8.30;97.90;;;;;;5057817;28;19971;-50
2021/03/16 00:38:51;;;;;;;;;;;8.30;98.00;;;;;;5057436;28;19932;-48
2021/03/16 00:41:18;;;;;;;;;;;8.30;98.10;;;;;;5023099;28;20011;-52
2021/03/16 00:44:07;;;;;;;;;;;8.40;97.90;;;;;;5039992;28;20009;-54
2021/03/16 00:46:35;;;;;;;;;;;8.40;97.80;;;;;;5034322;28;19971;-49
2021/03/16 00:49:03;;;;;;;;;;;8.30;97.80;;;;;;5051149;28;20306;-53
2021/03/16 00:51:33;;;;;;;;;;;8.30;98.00;;;;;;5075792;28;19929;-52
2021/03/16 00:54:06;;;;;;;;;;;8.40;98.00;;;;;;5058483;28;20317;-49
2021/03/16 00:56:33;;;;;;;;;;;8.30;97.90;;;;;;5042857;28;19924;-54
2021/03/16 00:59:00;;;;;;;;;;;8.40;98.00;;;;;;5076988;28;20343;-54
2021/03/16 01:01:28;;;;;;;;;;;8.30;97.90;;;;;;5059318;28;19932;-54
2021/03/16 01:03:55;;;;;;;;;;;8.30;98.20;;;;;;5055580;28;20387;-54
2021/03/16 01:06:25;;;;;;;;;;;8.30;98.00;;;;;;5055934;28;20263;-51
2021/03/16 01:08:52;;;;;;;;;;;8.30;98.00;;;;;;5022900;28;19975;-52
2021/03/16 01:11:19;;;;;;;;;;;8.30;98.10;;;;;;5039529;28;19935;-53
2021/03/16 01:13:47;;;;;;;;;;;8.30;98.00;;;;;;5056127;28;20019;-51
2021/03/16 01:16:15;;;;;;;;;;;8.20;98.10;;;;;;5055716;28;19929;-52
2021/03/16 01:18:45;;;;;;;;;;;8.20;98.20;;;;;;5055535;28;19925;-49
2021/03/16 01:21:12;;;;;;;;;;;8.20;98.20;;;;;;5056757;28;19952;-49
2021/03/16 01:23:39;;;;;;;;;;;8.30;98.20;;;;;;5055633;28;19929;-51
2021/03/16 01:26:07;;;;;;;;;;;8.30;98.00;;;;;;5039056;28;20027;-53
2021/03/16 01:28:34;;;;;;;;;;;8.30;98.00;;;;;;5055469;28;19928;-54
2021/03/16 01:31:04;;;;;;;;;;;8.40;98.00;;;;;;5055811;28;19925;-52
2021/03/16 01:33:32;;;;;;;;;;;8.50;98.00;;;;;;5055378;28;19925;-54
2021/03/16 01:36:00;;;;;;;;;;;8.40;97.90;;;;;;5038741;28;19929;-49
2021/03/16 01:38:27;;;;;;;;;;;8.40;97.90;;;;;;5038788;28;20019;-53
2021/03/16 01:40:54;;;;;;;;;;;8.50;97.70;;;;;;5054618;28;19925;-50
2021/03/16 01:43:23;;;;;;;;;;;8.50;97.80;;;;;;5055149;28;19925;-49
2021/03/16 01:45:53;;;;;;;;;;;8.50;97.80;;;;;;5056238;28;19978;-51
2021/03/16 01:48:22;;;;;;;;;;;8.40;97.80;;;;;;5055086;28;19924;-51
2021/03/16 01:50:49;;;;;;;;;;;8.40;97.90;;;;;;5056202;28;20337;-52
2021/03/16 01:53:17;;;;;;;;;;;8.40;97.90;;;;;;5056281;28;19925;-48
2021/03/16 01:55:45;;;;;;;;;;;8.30;97.90;;;;;;5055000;28;19924;-52
2021/03/16 01:58:12;;;;;;;;;;;8.40;97.90;;;;;;5054883;28;20318;-54
2021/03/16 02:00:58;;;;;;;;;;;8.40;97.70;;;;;;5056068;28;20023;-49
2021/03/16 02:03:43;;;;;;;;;;;8.20;98.00;;;;;;5063621;28;19929;-50
2021/03/16 02:06:31;;;;;;;;;;;8.30;98.20;;;;;;5075924;28;20390;-49
2021/03/16 02:09:19;;;;;;;;;;;8.20;98.00;;;;;;5061283;28;19931;-52
2021/03/16 02:12:05;;;;;;;;;;;8.30;98.20;;;;;;5076042;28;19924;-49
2021/03/16 02:14:57;;;;;;;;;;;8.20;98.00;;;;;;5076448;28;20430;-48
2021/03/16 02:17:47;;;;;;;;;;;8.20;98.10;;;;;;5075655;28;19928;-56
2021/03/16 02:20:48;;;;;;;;;;;8.20;98.20;;;;;;5060698;28;19925;-54
2021/03/16 02:23:41;;;;;;;;;;;8.30;98.10;;;;;;5061228;28;20287;-52
2021/03/16 02:26:29;;;;;;;;;;;8.30;98.10;;;;;;5075466;28;19974;-52
2021/03/16 02:29:15;;;;;;;;;;;8.30;98.10;;;;;;5075539;28;20370;-51
2021/03/16 02:32:05;;;;;;;;;;;8.30;98.00;;;;;;5075396;28;19924;-54
2021/03/16 02:35:10;;;;;;;;;;;8.30;98.10;;;;;;5060439;28;20011;-52
2021/03/16 02:37:58;;;;;;;;;;;8.30;98.10;;;;;;5060743;28;19932;-50
2021/03/16 02:40:46;;;;;;;;;;;8.30;98.10;;;;;;5057433;28;20294;-52
2021/03/16 02:43:34;;;;;;;;;;;8.30;98.10;;;;;;5075325;28;19964;-49
2021/03/16 02:46:20;;;;;;;;;;;8.30;97.90;;;;;;5060147;28;20074;-50
2021/03/16 02:49:09;;;;;;;;;;;8.30;98.10;;;;;;5075058;28;19964;-53
2021/03/16 02:51:56;;;;;;;;;;;8.20;97.90;;;;;;5060172;28;19931;-52
2021/03/16 02:54:42;;;;;;;;;;;8.10;98.30;;;;;;5074548;28;19925;-51
2021/03/16 02:57:29;;;;;;;;;;;8.10;98.40;;;;;;5074851;28;19959;-52
2021/03/16 03:00:16;;;;;;;;;;;8.10;98.30;;;;;;5060105;28;19924;-50
2021/03/16 03:03:04;;;;;;;;;;;8.10;98.40;;;;;;5074789;28;20066;-53
2021/03/16 03:05:54;;;;;;;;;;;8.10;98.60;;;;;;5074601;28;20301;-53
2021/03/16 03:08:45;;;;;;;;;;;8.00;98.70;;;;;;5059926;28;19934;-52
2021/03/16 03:11:33;;;;;;;;;;;8.00;98.70;;;;;;5059786;28;20011;-49
2021/03/16 03:14:19;;;;;;;;;;;8.10;98.80;;;;;;5059489;28;19924;-51
2021/03/16 03:17:06;;;;;;;;;;;8.10;98.80;;;;;;5074785;28;19924;-51
2021/03/16 03:19:51;;;;;;;;;;;8.20;98.60;;;;;;5059683;28;20259;-52
2021/03/16 03:22:37;;;;;;;;;;;8.10;98.70;;;;;;5074432;28;19924;-51
2021/03/16 03:25:28;;;;;;;;;;;8.00;98.60;;;;;;5074595;28;19924;-51
2021/03/16 03:28:15;;;;;;;;;;;8.10;98.70;;;;;;5074369;28;19925;-50
2021/03/16 03:31:02;;;;;;;;;;;8.00;98.80;;;;;;5074272;28;19950;-52
2021/03/16 03:33:51;;;;;;;;;;;8.10;98.80;;;;;;5059941;28;19932;-52
2021/03/16 03:36:38;;;;;;;;;;;8.00;98.70;;;;;;5074181;28;19924;-54
2021/03/16 03:39:24;;;;;;;;;;;8.00;98.90;;;;;;5059177;28;19932;-54
2021/03/16 03:42:10;;;;;;;;;;;8.00;98.80;;;;;;5059408;28;20440;-51
2021/03/16 03:44:56;;;;;;;;;;;8.10;98.70;;;;;;5074283;28;19924;-52
2021/03/16 03:47:46;;;;;;;;;;;8.10;98.80;;;;;;5074073;28;19931;-49
2021/03/16 03:50:36;;;;;;;;;;;8.10;98.80;;;;;;5059438;28;19924;-50
2021/03/16 03:53:22;;;;;;;;;;;8.10;98.90;;;;;;5059026;28;19925;-50
2021/03/16 03:56:08;;;;;;;;;;;8.10;98.60;;;;;;5059002;28;19930;-54
2021/03/16 03:58:57;;;;;;;;;;;8.10;98.60;;;;;;5074026;28;20011;-51
2021/03/16 04:01:43;;;;;;;;;;;8.00;98.50;;;;;;5059046;28;19924;-51
2021/03/16 04:04:29;;;;;;;;;;;8.10;98.60;;;;;;5058373;28;20015;-50
2021/03/16 04:07:15;;;;;;;;;;;8.00;98.60;;;;;;5074011;28;19931;-50
2021/03/16 04:10:04;;;;;;;;;;;8.10;98.70;;;;;;5058829;28;19928;-53
2021/03/16 04:12:50;;;;;;;;;;;8.10;98.80;;;;;;5058821;28;19928;-52
2021/03/16 04:15:36;;;;;;;;;;;8.10;98.60;;;;;;5059016;28;19925;-51
2021/03/16 04:18:22;;;;;;;;;;;8.10;98.90;;;;;;5073817;28;20386;-52
2021/03/16 04:21:07;;;;;;;;;;;8.10;98.80;;;;;;5073753;28;19936;-50
2021/03/16 04:23:54;;;;;;;;;;;8.10;98.70;;;;;;5073947;28;19928;-52
2021/03/16 04:26:45;;;;;;;;;;;8.10;98.80;;;;;;5042841;28;19932;-49
2021/03/16 04:29:31;;;;;;;;;;;8.10;98.90;;;;;;5073740;28;19932;-51
2021/03/16 04:32:17;;;;;;;;;;;8.00;98.90;;;;;;5073892;28;20290;-51
2021/03/16 04:35:03;;;;;;;;;;;8.00;99.20;;;;;;5073574;28;19946;-52
2021/03/16 04:37:48;;;;;;;;;;;8.00;99.20;;;;;;5058610;28;20021;-50
2021/03/16 04:40:34;;;;;;;;;;;8.00;99.20;;;;;;5073734;28;19993;-49
2021/03/16 04:43:20;;;;;;;;;;;8.10;99.50;;;;;;5073750;28;19928;-50
2021/03/16 04:46:08;;;;;;;;;;;8.10;99.40;;;;;;5073713;28;19924;-50
2021/03/16 04:48:56;;;;;;;;;;;8.20;99.30;;;;;;5058861;28;19931;-49
2021/03/16 04:51:42;;;;;;;;;;;8.20;99.20;;;;;;5073550;28;19925;-52
2021/03/16 04:54:27;;;;;;;;;;;8.20;99.20;;;;;;5073512;28;19974;-48
2021/03/16 04:57:13;;;;;;;;;;;8.20;99.20;;;;;;5073392;28;19924;-54
2021/03/16 04:59:58;;;;;;;;;;;8.30;99.20;;;;;;5073531;28;20488;-54
2021/03/16 05:02:44;;;;;;;;;;;8.20;99.40;;;;;;5073416;28;19925;-52
2021/03/16 05:05:32;;;;;;;;;;;8.10;99.60;;;;;;5073276;28;20405;-53
2021/03/16 05:08:18;;;;;;;;;;;8.10;99.70;;;;;;5073585;28;19963;-53
2021/03/16 05:11:04;;;;;;;;;;;8.00;99.80;;;;;;5073394;28;20318;-49
2021/03/16 05:13:52;;;;;;;;;;;8.00;99.90;;;;;;5073176;28;19932;-49
2021/03/16 05:16:38;;;;;;;;;;;8.10;99.90;;;;;;5074740;28;20294;-52
2021/03/16 05:19:24;;;;;;;;;;;8.10;99.90;;;;;;5076992;28;19925;-53
2021/03/16 05:22:10;;;;;;;;;;;8.20;99.90;;;;;;5076696;28;19928;-50
2021/03/16 05:24:56;;;;;;;;;;;8.20;99.80;;;;;;5076626;28;20037;-53
2021/03/16 05:27:41;;;;;;;;;;;8.20;99.80;;;;;;5076873;28;20015;-52
2021/03/16 05:30:27;;;;;;;;;;;8.20;99.80;;;;;;5076697;28;19924;-52
2021/03/16 05:33:17;;;;;;;;;;;8.30;99.80;;;;;;5076802;28;20397;-52
2021/03/16 05:36:03;;;;;;;;;;;8.30;99.80;;;;;;5076678;28;19999;-51
2021/03/16 05:38:48;;;;;;;;;;;8.50;99.90;;;;;;5076441;28;19931;-48
2021/03/16 05:41:36;;;;;;;;;;;8.70;99.50;;;;;;5076529;28;19925;-50
2021/03/16 05:44:22;;;;;;;;;;;8.90;99.30;;;;;;5061513;28;19925;-52
2021/03/16 05:47:07;;;;;;;;;;;9.00;98.80;;;;;;5076622;28;19928;-53
2021/03/16 05:49:56;;;;;;;;;;;9.00;98.70;;;;;;5076251;28;19932;-49
2021/03/16 05:52:41;;;;;;;;;;;9.10;98.90;;;;;;5061394;28;19967;-50
2021/03/16 05:55:27;;;;;;;;;;;9.40;98.90;;;;;;5076236;28;19969;-54
2021/03/16 05:58:13;;;;;;;;;;;9.70;98.40;;;;;;5075974;28;20073;-48
2021/03/16 06:00:58;;;;;;;;;;;9.90;98.00;;;;;;5076148;28;19931;-51
2021/03/16 06:03:47;;;;;;;;;;;10.20;97.60;;;;;;5076063;28;19925;-52
2021/03/16 06:06:33;;;;;;;;;;;10.50;97.10;;;;;;5060792;28;20019;-53
2021/03/16 06:09:19;;;;;;;;;;;10.60;96.60;;;;;;5076233;28;20272;-52
2021/03/16 06:12:08;;;;;;;;;;;10.70;96.60;;;;;;5075898;28;19924;-49
2021/03/16 06:14:57;;;;;;;;;;;10.80;96.50;;;;;;5075822;28;19931;-53
2021/03/16 06:17:51;;;;;;;;;;;11.10;96.20;;;;;;5044409;28;20393;-54
2021/03/16 06:20:38;;;;;;;;;;;11.30;95.80;;;;;;5060741;28;19924;-54
2021/03/16 06:23:32;;;;;;;;;;;11.60;95.80;;;;;;5060656;28;19924;-51
2021/03/16 06:26:18;;;;;;;;;;;11.90;95.40;;;;;;5074794;28;19924;-50
2021/03/16 06:29:05;;;;;;;;;;;12.10;95.00;;;;;;5075307;28;19925;-53
2021/03/16 06:31:51;;;;;;;;;;;12.30;94.50;;;;;;5060635;28;19946;-53
2021/03/16 06:34:37;;;;;;;;;;;12.40;94.30;;;;;;5060715;28;19952;-55
2021/03/16 06:37:26;;;;;;;;;;;12.70;93.80;;;;;;5075407;28;19932;-54
2021/03/16 06:40:14;;;;;;;;;;;12.90;94.00;;;;;;5075275;28;19931;-53
2021/03/16 06:43:04;;;;;;;;;;;13.10;93.30;;;;;;5075323;28;19928;-52
2021/03/16 06:45:51;;;;;;;;;;;13.30;92.70;;;;;;5060285;28;19932;-52
2021/03/16 06:48:37;;;;;;;;;;;13.50;92.20;;;;;;5075060;28;19931;-53
2021/03/16 06:51:25;;;;;;;;;;;13.50;92.20;;;;;;5075220;28;19928;-53
2021/03/16 06:54:20;;;;;;;;;;;13.60;92.30;;;;;;5060430;28;19970;-54
2021/03/16 06:57:08;;;;;;;;;;;13.70;92.10;;;;;;5059954;28;20026;-52
2021/03/16 07:00:04;;;;;;;;;;;13.90;91.90;;;;;;5060010;28;19970;-50
2021/03/16 07:02:50;;;;;;;;;;;14.00;91.60;;;;;;5059713;28;20307;-50
2021/03/16 07:05:36;;;;;;;;;;;14.20;91.30;;;;;;5059875;28;19936;-54
2021/03/16 07:08:22;;;;;;;;;;;14.40;91.20;;;;;;5074675;28;19924;-53
2021/03/16 07:11:12;;;;;;;;;;;14.60;90.70;;;;;;5074720;28;19932;-51
2021/03/16 07:13:58;;;;;;;;;;;14.80;90.40;;;;;;5059823;28;19978;-54
2021/03/16 07:16:47;;;;;;;;;;;15.00;90.00;;;;;;5074091;28;19924;-55
2021/03/16 07:19:33;;;;;;;;;;;15.20;89.00;;;;;;5059369;28;19947;-55
2021/03/16 07:22:20;;;;;;;;;;;15.30;88.70;;;;;;5074451;28;19935;-53
2021/03/16 07:25:07;;;;;;;;;;;15.50;87.90;;;;;;5059942;28;20310;-54
2021/03/16 07:27:57;;;;;;;;;;;15.60;87.70;;;;;;5074279;28;20009;-52
2021/03/16 07:30:50;;;;;;;;;;;15.60;87.30;;;;;;5060446;28;20424;-54
2021/03/16 07:33:37;;;;;;;;;;;15.60;86.80;;;;;;5059663;28;19931;-54
2021/03/16 07:36:22;;;;;;;;;;;15.60;86.30;;;;;;5074293;28;19932;-54
2021/03/16 07:39:16;;;;;;;;;;;15.70;86.20;;;;;;5073623;28;20064;-51
2021/03/16 07:42:08;;;;;;;;;;;15.90;85.40;;;;;;5059400;28;19924;-51
2021/03/16 07:44:54;;;;;;;;;;;16.00;85.20;;;;;;5074128;28;19931;-51
2021/03/16 07:47:42;;;;;;;;;;;15.90;84.70;;;;;;5059538;28;19925;-54
2021/03/16 07:50:30;;;;;;;;;;;16.00;84.50;;;;;;5074040;28;20019;-53
2021/03/16 07:53:24;;;;;;;;;;;16.20;84.00;;;;;;5043115;28;19928;-55
2021/03/16 07:56:13;;;;;;;;;;;16.40;83.00;;;;;;5059299;28;19931;-55
2021/03/16 07:59:05;;;;;;;;;;;16.40;83.10;;;;;;5073942;28;19931;-55
2021/03/16 08:01:57;;;;;;;;;;;16.30;83.40;;;;;;5059750;28;20386;-53
2021/03/16 08:04:45;;;;;;;;;;;16.30;83.90;;;;;;5042181;28;19947;-53
2021/03/16 08:07:41;;;;;;;;;;;16.40;83.60;;;;;;5058813;28;19931;-54
2021/03/16 08:10:31;;;;;;;;;;;16.40;84.50;;;;;;5073811;28;19929;-53
2021/03/16 08:13:21;;;;;;;;;;;16.60;83.30;;;;;;5073899;28;19924;-52
2021/03/16 08:16:11;;;;;;;;;;;16.80;82.00;;;;;;5058906;28;19956;-55
2021/03/16 08:19:08;;;;;;;;;;;16.70;79.30;;;;;;5055762;28;19986;-54
2021/03/16 08:21:57;;;;;;;;;;;16.80;79.90;;;;;;5059120;28;19924;-53
2021/03/16 08:24:51;;;;;;;;;;;17.00;79.30;;;;;;5059729;28;19929;-52
2021/03/16 08:27:49;;;;;;;;;;;17.10;78.70;;;;;;5058826;28;20298;-54
2021/03/16 08:30:40;;;;;;;;;;;17.30;76.80;;;;;;5053439;28;19952;-56
2021/03/16 08:33:30;;;;;;;;;;;17.40;74.00;;;;;;5038003;28;19925;-56
2021/03/16 08:36:17;;;;;;;;;;;17.30;72.60;;;;;;5052659;28;19931;-53
2021/03/16 08:39:05;;;;;;;;;;;17.30;70.40;;;;;;5020307;28;19963;-55
2021/03/16 08:41:56;;;;;;;;;;;17.20;70.80;;;;;;5052679;28;19932;-57
2021/03/16 08:44:45;;;;;;;;;;;17.30;70.40;;;;;;5037841;28;20293;-55
2021/03/16 08:47:33;;;;;;;;;;;17.50;69.00;;;;;;5037804;28;19925;-55
2021/03/16 08:50:24;;;;;;;;;;;17.60;68.50;;;;;;5052373;28;20406;-51
2021/03/16 08:53:14;;;;;;;;;;;17.60;66.50;;;;;;5041889;28;19975;-60
2021/03/16 08:56:09;;;;;;;;;;;17.80;65.60;;;;;;5024752;28;19936;-57
2021/03/16 08:58:55;;;;;;;;;;;17.60;65.00;;;;;;5041214;28;19932;-53
2021/03/16 09:01:51;;;;;;;;;;;17.00;65.30;;;;;;5056092;28;19936;-54
2021/03/16 09:04:40;;;;;;;;;;;16.70;65.00;;;;;;5034619;28;20279;-52
2021/03/16 09:07:31;;;;;;;;;;;16.60;64.90;;;;;;5035238;28;20007;-54
2021/03/16 09:10:19;;;;;;;;;;;16.80;65.40;;;;;;5035095;28;19925;-55
2021/03/16 09:13:08;;;;;;;;;;;17.00;64.90;;;;;;5021740;28;20461;-55
2021/03/16 09:15:55;;;;;;;;;;;17.20;63.80;;;;;;5035883;28;19925;-56
2021/03/16 09:18:45;;;;;;;;;;;17.30;64.20;;;;;;5035006;28;19929;-54
2021/03/16 09:21:34;;;;;;;;;;;17.00;63.50;;;;;;5034834;28;20409;-53
2021/03/16 09:24:32;;;;;;;;;;;16.70;63.40;;;;;;5035352;28;19960;-53
2021/03/16 09:27:25;;;;;;;;;;;16.40;64.50;;;;;;5035571;28;19925;-55
2021/03/16 09:30:18;;;;;;;;;;;16.20;64.50;;;;;;5034608;28;20011;-54
2021/03/16 09:33:10;;;;;;;;;;;16.30;64.80;;;;;;5034527;28;20399;-54
2021/03/16 09:36:03;;;;;;;;;;;16.40;64.40;;;;;;5034678;28;19925;-57
2021/03/16 09:38:56;;;;;;;;;;;16.40;64.30;;;;;;5035077;28;19994;-50
2021/03/16 09:41:38;;;;;;;;;;;16.40;62.70;;;;;;5018241;28;19925;-55
2021/03/16 09:44:12;;;;;;;;;;;16.60;62.00;;;;;;5018764;28;20019;-55
2021/03/16 09:46:47;;;;;;;;;;;16.70;60.50;;;;;;5033887;28;19983;-54
2021/03/16 09:49:28;;;;;;;;;;;16.80;59.80;;;;;;5034303;28;19992;-54
2021/03/16 09:52:07;;;;;;;;;;;16.90;61.20;;;;;;5018054;28;20307;-55
2021/03/16 09:54:37;;;;;;;;;;;16.80;61.20;;;;;;5018042;28;19925;-53
2021/03/16 09:57:06;;;;;;;;;;;16.70;60.60;;;;;;5017591;28;19936;-58
2021/03/16 09:59:41;;;;;;;;;;;16.90;60.60;;;;;;5033874;28;19925;-54
2021/03/16 10:02:19;;;;;;;;;;;17.00;60.00;;;;;;5034974;28;19925;-54
2021/03/16 10:04:48;;;;;;;;;;;17.10;58.80;;;;;;5033412;28;19968;-56
2021/03/16 10:07:28;;;;;;;;;;;17.20;58.80;;;;;;5018850;28;19925;-53
2021/03/16 10:10:27;;;;;;;;;;;16.90;59.50;;;;;;5033272;28;19932;-53
2021/03/16 10:13:08;;;;;;;;;;;16.80;59.10;;;;;;5033563;28;20410;-52
2021/03/16 10:15:42;;;;;;;;;;;16.60;60.30;;;;;;5017118;28;19925;-56
2021/03/16 10:18:15;;;;;;;;;;;16.30;61.50;;;;;;5032651;28;19957;-54
2021/03/16 10:20:48;;;;;;;;;;;16.00;61.50;;;;;;5032907;28;19925;-60
2021/03/16 10:23:31;;;;;;;;;;;16.00;61.90;;;;;;5033393;28;19991;-53
2021/03/16 10:26:05;;;;;;;;;;;16.10;62.50;;;;;;5017461;28;19925;-53
2021/03/16 10:28:41;;;;;;;;;;;16.30;60.50;;;;;;5034157;28;20139;-54
2021/03/16 10:31:19;;;;;;;;;;;16.50;60.40;;;;;;5033257;28;19925;-49
2021/03/16 10:33:56;;;;;;;;;;;16.60;59.90;;;;;;5032930;28;20104;-52
2021/03/16 10:36:24;;;;;;;;;;;16.60;60.00;;;;;;5049140;28;19931;-54
2021/03/16 10:38:59;;;;;;;;;;;16.60;59.60;;;;;;5031617;28;19932;-51
2021/03/16 10:41:31;;;;;;;;;;;16.60;60.40;;;;;;5032765;28;19931;-52
2021/03/16 10:44:11;;;;;;;;;;;16.60;61.30;;;;;;5033258;28;19960;-51
2021/03/16 10:46:39;;;;;;;;;;;16.40;60.10;;;;;;5033543;28;20311;-53
2021/03/16 10:49:13;;;;;;;;;;;16.30;60.80;;;;;;5033505;28;19929;-54
2021/03/16 10:51:48;;;;;;;;;;;16.20;61.60;;;;;;5017258;28;20023;-53
2021/03/16 10:54:22;;;;;;;;;;;16.50;59.70;;;;;;5016483;28;19929;-54
2021/03/16 10:56:55;;;;;;;;;;;16.70;58.20;;;;;;5034172;28;19960;-54
2021/03/16 10:59:34;;;;;;;;;;;16.70;58.00;;;;;;5034350;28;19932;-53
2021/03/16 11:02:04;;;;;;;;;;;16.90;56.20;;;;;;5017018;28;19935;-53
2021/03/16 11:04:33;;;;;;;;;;;17.10;56.80;;;;;;5032386;28;19925;-52
2021/03/16 11:07:09;;;;;;;;;;;17.10;57.30;;;;;;5032086;28;19925;-54
2021/03/16 11:09:41;;;;;;;;;;;16.80;56.70;;;;;;5033318;28;22952;-53
2021/03/16 11:12:08;;;;;;;;;;;16.60;57.60;;;;;;5033884;28;19947;-50
2021/03/16 11:14:48;;;;;;;;;;;16.30;58.50;;;;;;5033128;28;19925;-54
2021/03/16 11:17:18;;;;;;;;;;;16.00;60.10;;;;;;5031802;28;20012;-52
2021/03/16 11:19:50;;;;;;;;;;;15.70;64.90;;;;;;5032316;28;20380;-54
2021/03/16 11:22:21;;;;;;;;;;;15.50;68.70;;;;;;5032195;28;19925;-54
2021/03/16 11:25:03;;;;;;;;;;;15.30;69.20;;;;;;5017134;28;19929;-53
2021/03/16 11:28:03;;;;;;;;;;;15.20;68.80;;;;;;5045845;28;20071;-55
2021/03/16 11:30:31;;;;;;;;;;;15.00;70.70;;;;;;5032552;28;19951;-55
2021/03/16 11:33:05;;;;;;;;;;;14.60;74.60;;;;;;5049025;28;19925;-56
2021/03/16 11:39:04;;;;;;;;;;;14.10;86.00;;;;;;5032768;28;20016;-50
2021/03/16 11:41:51;;;;;;;;;;;13.90;90.20;;;;;;5032141;28;19933;-53
2021/03/16 11:44:37;;;;;;;;;;;13.80;91.20;;;;;;5033309;28;19925;-55
2021/03/16 11:47:26;;;;;;;;;;;13.60;91.40;;;;;;5033025;28;19983;-52
2021/03/16 11:50:12;;;;;;;;;;;13.50;91.70;;;;;;5032899;28;20359;-54
2021/03/16 11:53:07;;;;;;;;;;;13.30;93.10;;;;;;5033301;28;19929;-51
2021/03/16 11:56:01;;;;;;;;;;;13.40;93.20;;;;;;5032026;28;20391;-54
2021/03/16 11:58:49;;;;;;;;;;;13.50;94.40;;;;;;5032053;28;19932;-53
2021/03/16 12:01:36;;;;;;;;;;;13.60;93.90;;;;;;5032013;28;20075;-53
2021/03/16 12:04:32;;;;;;;;;;;13.90;93.30;;;;;;5046542;28;20010;-54
2021/03/16 12:07:27;;;;;;;;;;;14.20;92.60;;;;;;5021955;28;19974;-52
2021/03/16 12:10:17;;;;;;;;;;;14.50;91.70;;;;;;5034914;28;20010;-55
2021/03/16 12:13:14;;;;;;;;;;;14.70;92.10;;;;;;5022717;28;19936;-51
2021/03/16 12:16:03;;;;;;;;;;;14.90;91.20;;;;;;5036814;28;19936;-52
2021/03/16 12:18:50;;;;;;;;;;;14.80;90.20;;;;;;5052100;28;20390;-55
2021/03/16 12:21:53;;;;;;;;;;;14.50;89.10;;;;;;5053178;28;19925;-56
2021/03/16 12:24:44;;;;;;;;;;;14.40;89.00;;;;;;5034956;28;19947;-54
2021/03/16 12:27:32;;;;;;;;;;;14.20;87.80;;;;;;5041250;28;20405;-54
2021/03/16 12:30:19;;;;;;;;;;;14.10;89.10;;;;;;5041462;28;19928;-55
2021/03/16 12:33:10;;;;;;;;;;;14.00;90.30;;;;;;5025581;28;19925;-54
2021/03/16 12:35:56;;;;;;;;;;;14.00;90.60;;;;;;5056653;28;20017;-58
2021/03/16 12:38:45;;;;;;;;;;;14.00;91.00;;;;;;5040425;28;20375;-52
2021/03/16 12:41:46;;;;;;;;;;;14.10;91.20;;;;;;5044095;28;20314;-54
2021/03/16 12:44:38;;;;;;;;;;;14.30;91.30;;;;;;5056098;28;20438;-55
2021/03/16 12:47:27;;;;;;;;;;;14.30;91.80;;;;;;5039131;28;19924;-53
2021/03/16 12:50:18;;;;;;;;;;;14.30;90.50;;;;;;5041263;28;19925;-56
2021/03/16 12:53:06;;;;;;;;;;;14.30;89.50;;;;;;5041745;28;19924;-58
2021/03/16 12:55:57;;;;;;;;;;;14.40;90.20;;;;;;5041322;28;19925;-57
2021/03/16 12:58:46;;;;;;;;;;;14.40;90.50;;;;;;5040899;28;19991;-55
2021/03/16 13:01:39;;;;;;;;;;;14.50;89.90;;;;;;5042496;28;20383;-54
2021/03/16 13:04:31;;;;;;;;;;;14.50;89.30;;;;;;5024590;28;20298;-54
2021/03/16 13:07:26;;;;;;;;;;;14.50;84.10;;;;;;5041107;28;19925;-53
2021/03/16 13:10:15;;;;;;;;;;;14.50;82.30;;;;;;5041134;28;19959;-55
2021/03/16 13:13:07;;;;;;;;;;;14.60;81.40;;;;;;5041985;28;19929;-54
2021/03/16 13:15:58;;;;;;;;;;;14.60;81.20;;;;;;5041240;28;19924;-55
2021/03/16 13:18:44;;;;;;;;;;;14.60;78.60;;;;;;5040992;28;19967;-55
2021/03/16 13:21:38;;;;;;;;;;;14.60;78.50;;;;;;5056081;28;19932;-54
2021/03/16 13:24:33;;;;;;;;;;;14.50;78.30;;;;;;5056055;28;19932;-56
2021/03/16 13:27:20;;;;;;;;;;;14.30;78.80;;;;;;5055316;28;19925;-57
2021/03/16 13:30:12;;;;;;;;;;;14.20;78.20;;;;;;5037769;28;19928;-55
2021/03/16 13:33:01;;;;;;;;;;;14.10;78.20;;;;;;5040872;28;19925;-54
2021/03/16 13:35:51;;;;;;;;;;;14.20;78.30;;;;;;5041379;28;19933;-51
2021/03/16 13:38:47;;;;;;;;;;;14.20;78.10;;;;;;5036999;28;20383;-53
2021/03/16 13:41:33;;;;;;;;;;;14.20;77.70;;;;;;5055834;28;19925;-51
2021/03/16 13:44:22;;;;;;;;;;;14.30;77.50;;;;;;5037269;28;19948;-54
2021/03/16 13:47:10;;;;;;;;;;;14.20;77.90;;;;;;5055716;28;19932;-53
2021/03/16 13:50:02;;;;;;;;;;;14.30;77.50;;;;;;5040771;28;20394;-55
2021/03/16 13:52:50;;;;;;;;;;;14.40;76.70;;;;;;5055477;28;19928;-55
2021/03/16 13:55:40;;;;;;;;;;;14.30;75.60;;;;;;5040754;28;19928;-55
2021/03/16 13:58:29;;;;;;;;;;;14.40;76.80;;;;;;5055308;28;20481;-55
2021/03/16 14:01:16;;;;;;;;;;;14.30;77.10;;;;;;5055422;28;19925;-52
2021/03/16 14:04:02;;;;;;;;;;;14.20;78.60;;;;;;5054937;28;19925;-58
2021/03/16 14:07:08;;;;;;;;;;;14.10;79.60;;;;;;5037447;28;20073;-51
2021/03/16 14:10:05;;;;;;;;;;;14.00;79.90;;;;;;5041247;28;20390;-55
2021/03/16 14:12:59;;;;;;;;;;;13.80;79.90;;;;;;5041094;28;19932;-56
2021/03/16 14:15:50;;;;;;;;;;;13.70;79.50;;;;;;5040318;28;19975;-55
2021/03/16 14:19:01;;;;;;;;;;;13.70;78.50;;;;;;5040861;28;19978;-55
2021/03/16 14:21:50;;;;;;;;;;;13.60;78.90;;;;;;5029544;28;19925;-56
2021/03/16 14:24:39;;;;;;;;;;;13.70;80.30;;;;;;5040030;28;19924;-60
2021/03/16 14:27:28;;;;;;;;;;;13.80;80.90;;;;;;5054535;28;19929;-56
2021/03/16 14:30:17;;;;;;;;;;;13.90;79.80;;;;;;5039392;28;19960;-55
2021/03/16 14:33:09;;;;;;;;;;;13.90;78.50;;;;;;5039943;28;19932;-56
2021/03/16 14:35:55;;;;;;;;;;;13.90;78.70;;;;;;5039127;28;19925;-55
2021/03/16 14:38:46;;;;;;;;;;;13.90;79.00;;;;;;5053700;28;19935;-56
2021/03/16 14:41:36;;;;;;;;;;;13.90;78.60;;;;;;5054013;28;19931;-57
2021/03/16 14:44:24;;;;;;;;;;;13.90;78.80;;;;;;5036670;28;19928;-56
2021/03/16 14:47:11;;;;;;;;;;;13.80;78.20;;;;;;5054159;28;19935;-56
2021/03/16 14:49:57;;;;;;;;;;;13.90;78.40;;;;;;5054006;28;19925;-57
2021/03/16 14:52:42;;;;;;;;;;;13.90;79.00;;;;;;5054439;28;20290;-57
2021/03/16 14:55:28;;;;;;;;;;;13.90;81.60;;;;;;5053575;28;19925;-59
2021/03/16 14:58:14;;;;;;;;;;;14.00;78.30;;;;;;5053350;28;19925;-57
2021/03/16 15:01:01;;;;;;;;;;;14.10;78.20;;;;;;5053824;28;19935;-57
2021/03/16 15:03:47;;;;;;;;;;;14.10;75.40;;;;;;5038098;28;20264;-57
2021/03/16 15:06:39;;;;;;;;;;;14.10;74.40;;;;;;5053892;28;20418;-57
2021/03/16 15:09:36;;;;;;;;;;;14.00;75.60;;;;;;5039033;28;20401;-58
2021/03/16 15:12:30;;;;;;;;;;;13.80;77.20;;;;;;5041236;28;20436;-58
2021/03/16 15:15:26;;;;;;;;;;;13.80;77.30;;;;;;5039370;28;20375;-57
2021/03/16 15:18:12;;;;;;;;;;;13.80;76.90;;;;;;5053334;28;19940;-58
2021/03/16 15:21:08;;;;;;;;;;;13.80;75.60;;;;;;5053312;28;19931;-59
2021/03/16 15:24:00;;;;;;;;;;;13.70;74.90;;;;;;5035835;28;20300;-59
2021/03/16 15:26:45;;;;;;;;;;;13.60;74.40;;;;;;5053490;28;19925;-57
2021/03/16 15:29:32;;;;;;;;;;;13.50;75.00;;;;;;5035809;28;20392;-58
2021/03/16 15:32:18;;;;;;;;;;;13.60;75.30;;;;;;5052908;28;19928;-56
2021/03/16 15:35:05;;;;;;;;;;;13.60;75.00;;;;;;5053054;28;19932;-58
2021/03/16 15:37:51;;;;;;;;;;;13.70;74.90;;;;;;5038095;28;19933;-57
2021/03/16 15:40:47;;;;;;;;;;;13.60;73.40;;;;;;5052656;28;19967;-57
2021/03/16 15:43:33;;;;;;;;;;;13.60;71.60;;;;;;5038602;28;19987;-56
2021/03/16 15:46:19;;;;;;;;;;;13.60;74.00;;;;;;5052691;28;20001;-56
2021/03/16 15:49:12;;;;;;;;;;;13.60;73.50;;;;;;5053148;28;19925;-58
2021/03/16 15:51:58;;;;;;;;;;;13.50;73.80;;;;;;5037735;28;19925;-58
2021/03/16 15:54:47;;;;;;;;;;;13.60;74.00;;;;;;5052760;28;19931;-58
2021/03/16 15:57:33;;;;;;;;;;;13.50;74.80;;;;;;5052806;28;20034;-58
2021/03/16 16:00:21;;;;;;;;;;;13.50;75.80;;;;;;5051962;28;20302;-58
2021/03/16 16:03:14;;;;;;;;;;;13.50;76.50;;;;;;5052723;28;19964;-58
2021/03/16 16:06:01;;;;;;;;;;;13.60;77.50;;;;;;5038236;28;19943;-58